sensor_id;sensor_type;location;lat;lon;timestamp;temperature;humidity
64062;DHT22;50308;47.438;-1.528;2022-10-01T00:01:18;17.20;75.50
64062;DHT22;50308;47.438;-1.528;2022-10-01T00:03:44;17.10;72.10
64062;DHT22;50308;47.438;-1.528;2022-10-01T00:06:18;17.20;73.00
64062;DHT22;50308;47.438;-1.528;2022-10-01T00:08:46;17.20;74.20
64062;DHT22;50308;47.438;-1.528;2022-10-01T00:11:19;17.20;73.90
64062;DHT22;50308;47.438;-1.528;2022-10-01T00:13:46;17.20;73.80
64062;DHT22;50308;47.438;-1.528;2022-10-01T00:16:15;17.20;76.60
64062;DHT22;50308;47.438;-1.528;2022-10-01T00:18:43;17.20;76.40
64062;DHT22;50308;47.438;-1.528;2022-10-01T00:21:17;17.30;76.20
64062;DHT22;50308;47.438;-1.528;2022-10-01T00:23:43;17.30;76.20
64062;DHT22;50308;47.438;-1.528;2022-10-01T00:26:21;17.30;75.40
64062;DHT22;50308;47.438;-1.528;2022-10-01T00:28:51;17.30;77.50
64062;DHT22;50308;47.438;-1.528;2022-10-01T00:31:17;17.30;77.00
64062;DHT22;50308;47.438;-1.528;2022-10-01T00:33:43;17.30;76.70
64062;DHT22;50308;47.438;-1.528;2022-10-01T00:36:10;17.30;76.00
64062;DHT22;50308;47.438;-1.528;2022-10-01T00:38:36;17.30;76.80
64062;DHT22;50308;47.438;-1.528;2022-10-01T00:41:03;17.30;78.60
64062;DHT22;50308;47.438;-1.528;2022-10-01T00:43:32;17.30;76.70
64062;DHT22;50308;47.438;-1.528;2022-10-01T00:46:21;17.30;79.30
64062;DHT22;50308;47.438;-1.528;2022-10-01T00:51:37;17.30;79.20
64062;DHT22;50308;47.438;-1.528;2022-10-01T00:54:08;17.30;78.60
64062;DHT22;50308;47.438;-1.528;2022-10-01T00:56:35;17.30;78.10
64062;DHT22;50308;47.438;-1.528;2022-10-01T00:59:02;17.30;76.40
64062;DHT22;50308;47.438;-1.528;2022-10-01T01:01:28;17.30;76.90
64062;DHT22;50308;47.438;-1.528;2022-10-01T01:03:54;17.40;77.00
64062;DHT22;50308;47.438;-1.528;2022-10-01T01:06:20;17.40;78.50
64062;DHT22;50308;47.438;-1.528;2022-10-01T01:08:46;17.40;78.90
64062;DHT22;50308;47.438;-1.528;2022-10-01T01:11:27;17.40;78.50
64062;DHT22;50308;47.438;-1.528;2022-10-01T01:14:24;17.40;78.60
64062;DHT22;50308;47.438;-1.528;2022-10-01T01:16:58;17.50;79.20
64062;DHT22;50308;47.438;-1.528;2022-10-01T01:22:13;17.40;79.60
64062;DHT22;50308;47.438;-1.528;2022-10-01T01:24:49;17.40;77.90
64062;DHT22;50308;47.438;-1.528;2022-10-01T01:32:26;17.40;77.80
64062;DHT22;50308;47.438;-1.528;2022-10-01T01:34:54;17.40;78.90
64062;DHT22;50308;47.438;-1.528;2022-10-01T01:37:24;17.40;78.10
64062;DHT22;50308;47.438;-1.528;2022-10-01T01:39:53;17.50;78.20
64062;DHT22;50308;47.438;-1.528;2022-10-01T01:42:29;17.50;76.40
64062;DHT22;50308;47.438;-1.528;2022-10-01T01:44:59;17.40;76.70
64062;DHT22;50308;47.438;-1.528;2022-10-01T01:47:27;17.50;78.70
64062;DHT22;50308;47.438;-1.528;2022-10-01T01:49:55;17.50;77.00
64062;DHT22;50308;47.438;-1.528;2022-10-01T01:52:23;17.50;76.60
64062;DHT22;50308;47.438;-1.528;2022-10-01T01:54:50;17.50;79.70
64062;DHT22;50308;47.438;-1.528;2022-10-01T01:57:18;17.50;78.50
64062;DHT22;50308;47.438;-1.528;2022-10-01T01:59:44;17.50;76.20
64062;DHT22;50308;47.438;-1.528;2022-10-01T02:02:21;17.50;79.70
64062;DHT22;50308;47.438;-1.528;2022-10-01T02:05:12;17.50;76.80
64062;DHT22;50308;47.438;-1.528;2022-10-01T02:18:47;17.50;77.30
64062;DHT22;50308;47.438;-1.528;2022-10-01T02:26:48;17.50;78.10
64062;DHT22;50308;47.438;-1.528;2022-10-01T02:29:16;17.60;79.40
64062;DHT22;50308;47.438;-1.528;2022-10-01T02:31:44;17.50;78.50
64062;DHT22;50308;47.438;-1.528;2022-10-01T02:34:12;17.50;79.70
64062;DHT22;50308;47.438;-1.528;2022-10-01T02:36:41;17.60;79.80
64062;DHT22;50308;47.438;-1.528;2022-10-01T02:39:11;17.60;79.50
64062;DHT22;50308;47.438;-1.528;2022-10-01T02:41:40;17.60;81.50
64062;DHT22;50308;47.438;-1.528;2022-10-01T02:44:19;17.60;79.70
64062;DHT22;50308;47.438;-1.528;2022-10-01T02:47:07;17.60;79.80
64062;DHT22;50308;47.438;-1.528;2022-10-01T02:49:35;17.60;79.20
64062;DHT22;50308;47.438;-1.528;2022-10-01T02:57:18;17.60;77.90
64062;DHT22;50308;47.438;-1.528;2022-10-01T02:59:50;17.60;79.10
64062;DHT22;50308;47.438;-1.528;2022-10-01T03:02:17;17.60;77.70
64062;DHT22;50308;47.438;-1.528;2022-10-01T03:04:43;17.60;81.60
64062;DHT22;50308;47.438;-1.528;2022-10-01T03:07:09;17.60;78.40
64062;DHT22;50308;47.438;-1.528;2022-10-01T03:09:34;17.60;79.80
64062;DHT22;50308;47.438;-1.528;2022-10-01T03:12:01;17.70;82.20
64062;DHT22;50308;47.438;-1.528;2022-10-01T03:14:27;17.60;80.00
64062;DHT22;50308;47.438;-1.528;2022-10-01T03:16:53;17.70;80.80
64062;DHT22;50308;47.438;-1.528;2022-10-01T03:19:19;17.60;79.60
64062;DHT22;50308;47.438;-1.528;2022-10-01T03:21:46;17.60;79.00
64062;DHT22;50308;47.438;-1.528;2022-10-01T03:24:12;17.60;79.80
64062;DHT22;50308;47.438;-1.528;2022-10-01T03:26:37;17.60;78.40
64062;DHT22;50308;47.438;-1.528;2022-10-01T03:29:04;17.70;81.40
64062;DHT22;50308;47.438;-1.528;2022-10-01T03:31:29;17.60;79.70
64062;DHT22;50308;47.438;-1.528;2022-10-01T03:33:55;17.60;79.20
64062;DHT22;50308;47.438;-1.528;2022-10-01T03:36:27;17.70;80.00
64062;DHT22;50308;47.438;-1.528;2022-10-01T03:38:53;17.70;78.70
64062;DHT22;50308;47.438;-1.528;2022-10-01T03:41:18;17.70;80.30
64062;DHT22;50308;47.438;-1.528;2022-10-01T03:43:44;17.70;80.70
64062;DHT22;50308;47.438;-1.528;2022-10-01T03:46:10;17.70;79.20
64062;DHT22;50308;47.438;-1.528;2022-10-01T03:48:38;17.70;81.20
64062;DHT22;50308;47.438;-1.528;2022-10-01T03:51:05;17.70;78.10
64062;DHT22;50308;47.438;-1.528;2022-10-01T03:53:30;17.70;81.60
64062;DHT22;50308;47.438;-1.528;2022-10-01T03:55:59;17.70;79.80
64062;DHT22;50308;47.438;-1.528;2022-10-01T03:58:25;17.70;81.50
64062;DHT22;50308;47.438;-1.528;2022-10-01T04:00:51;17.70;80.70
64062;DHT22;50308;47.438;-1.528;2022-10-01T04:03:20;17.70;82.20
64062;DHT22;50308;47.438;-1.528;2022-10-01T04:05:46;17.70;81.20
64062;DHT22;50308;47.438;-1.528;2022-10-01T04:08:12;17.70;82.20
64062;DHT22;50308;47.438;-1.528;2022-10-01T04:10:39;17.70;80.80
64062;DHT22;50308;47.438;-1.528;2022-10-01T04:13:06;17.70;81.30
64062;DHT22;50308;47.438;-1.528;2022-10-01T04:15:32;17.70;79.50
64062;DHT22;50308;47.438;-1.528;2022-10-01T04:17:58;17.70;79.90
64062;DHT22;50308;47.438;-1.528;2022-10-01T04:20:24;17.70;80.20
64062;DHT22;50308;47.438;-1.528;2022-10-01T04:22:50;17.70;82.10
64062;DHT22;50308;47.438;-1.528;2022-10-01T04:25:16;17.80;83.50
64062;DHT22;50308;47.438;-1.528;2022-10-01T04:27:57;17.80;83.70
64062;DHT22;50308;47.438;-1.528;2022-10-01T04:30:24;17.70;80.70
64062;DHT22;50308;47.438;-1.528;2022-10-01T04:32:49;17.70;79.80
64062;DHT22;50308;47.438;-1.528;2022-10-01T04:35:15;17.70;78.90
64062;DHT22;50308;47.438;-1.528;2022-10-01T04:37:41;17.70;80.70
64062;DHT22;50308;47.438;-1.528;2022-10-01T04:40:07;17.70;79.40
64062;DHT22;50308;47.438;-1.528;2022-10-01T04:42:34;17.70;79.40
64062;DHT22;50308;47.438;-1.528;2022-10-01T04:44:59;17.70;79.30
64062;DHT22;50308;47.438;-1.528;2022-10-01T04:47:25;17.80;82.10
64062;DHT22;50308;47.438;-1.528;2022-10-01T04:49:51;17.80;83.10
64062;DHT22;50308;47.438;-1.528;2022-10-01T04:52:16;17.80;79.90
64062;DHT22;50308;47.438;-1.528;2022-10-01T04:54:42;17.80;79.90
64062;DHT22;50308;47.438;-1.528;2022-10-01T04:57:08;17.80;79.90
64062;DHT22;50308;47.438;-1.528;2022-10-01T04:59:33;17.80;81.10
64062;DHT22;50308;47.438;-1.528;2022-10-01T05:01:59;17.80;81.50
64062;DHT22;50308;47.438;-1.528;2022-10-01T05:04:25;17.80;79.30
64062;DHT22;50308;47.438;-1.528;2022-10-01T05:06:51;17.70;78.90
64062;DHT22;50308;47.438;-1.528;2022-10-01T05:09:17;17.80;80.30
64062;DHT22;50308;47.438;-1.528;2022-10-01T05:11:43;17.80;80.60
64062;DHT22;50308;47.438;-1.528;2022-10-01T05:14:10;17.80;80.30
64062;DHT22;50308;47.438;-1.528;2022-10-01T05:16:36;17.70;79.30
64062;DHT22;50308;47.438;-1.528;2022-10-01T05:19:02;17.80;79.90
64062;DHT22;50308;47.438;-1.528;2022-10-01T05:21:27;17.80;79.90
64062;DHT22;50308;47.438;-1.528;2022-10-01T05:23:53;17.80;83.30
64062;DHT22;50308;47.438;-1.528;2022-10-01T05:26:19;17.80;78.50
64062;DHT22;50308;47.438;-1.528;2022-10-01T05:28:45;17.80;80.30
64062;DHT22;50308;47.438;-1.528;2022-10-01T05:31:11;17.70;78.50
64062;DHT22;50308;47.438;-1.528;2022-10-01T05:33:37;17.80;81.60
64062;DHT22;50308;47.438;-1.528;2022-10-01T05:36:05;17.80;82.10
64062;DHT22;50308;47.438;-1.528;2022-10-01T05:38:32;17.80;80.40
64062;DHT22;50308;47.438;-1.528;2022-10-01T05:41:05;17.80;78.70
64062;DHT22;50308;47.438;-1.528;2022-10-01T05:43:31;17.80;80.90
64062;DHT22;50308;47.438;-1.528;2022-10-01T05:46:03;17.80;81.10
64062;DHT22;50308;47.438;-1.528;2022-10-01T05:48:30;17.80;79.50
64062;DHT22;50308;47.438;-1.528;2022-10-01T05:51:03;17.80;81.40
64062;DHT22;50308;47.438;-1.528;2022-10-01T05:53:31;17.80;80.50
64062;DHT22;50308;47.438;-1.528;2022-10-01T05:55:58;17.80;79.70
64062;DHT22;50308;47.438;-1.528;2022-10-01T05:58:26;17.80;82.90
64062;DHT22;50308;47.438;-1.528;2022-10-01T06:00:54;17.80;80.80
64062;DHT22;50308;47.438;-1.528;2022-10-01T06:03:20;17.90;83.10
64062;DHT22;50308;47.438;-1.528;2022-10-01T06:05:46;17.90;79.40
64062;DHT22;50308;47.438;-1.528;2022-10-01T06:08:12;17.90;82.10
64062;DHT22;50308;47.438;-1.528;2022-10-01T06:10:38;17.90;81.50
64062;DHT22;50308;47.438;-1.528;2022-10-01T06:13:04;17.90;83.10
64062;DHT22;50308;47.438;-1.528;2022-10-01T06:15:35;17.90;83.10
64062;DHT22;50308;47.438;-1.528;2022-10-01T06:18:06;17.90;84.40
64062;DHT22;50308;47.438;-1.528;2022-10-01T06:20:33;17.90;82.90
64062;DHT22;50308;47.438;-1.528;2022-10-01T06:22:59;17.90;79.90
64062;DHT22;50308;47.438;-1.528;2022-10-01T06:25:26;17.90;83.80
64062;DHT22;50308;47.438;-1.528;2022-10-01T06:27:57;17.90;80.70
64062;DHT22;50308;47.438;-1.528;2022-10-01T06:30:24;17.80;83.10
64062;DHT22;50308;47.438;-1.528;2022-10-01T06:32:59;17.80;82.40
64062;DHT22;50308;47.438;-1.528;2022-10-01T06:35:27;17.80;79.80
64062;DHT22;50308;47.438;-1.528;2022-10-01T06:37:53;17.80;80.90
64062;DHT22;50308;47.438;-1.528;2022-10-01T06:40:18;17.80;82.40
64062;DHT22;50308;47.438;-1.528;2022-10-01T06:42:48;17.80;80.90
64062;DHT22;50308;47.438;-1.528;2022-10-01T06:45:17;17.80;83.20
64062;DHT22;50308;47.438;-1.528;2022-10-01T06:47:56;17.90;81.50
64062;DHT22;50308;47.438;-1.528;2022-10-01T06:50:23;17.80;80.90
64062;DHT22;50308;47.438;-1.528;2022-10-01T06:52:49;17.90;82.50
64062;DHT22;50308;47.438;-1.528;2022-10-01T06:57:42;17.90;80.00
64062;DHT22;50308;47.438;-1.528;2022-10-01T07:00:08;17.90;82.80
64062;DHT22;50308;47.438;-1.528;2022-10-01T07:02:34;17.90;79.90
64062;DHT22;50308;47.438;-1.528;2022-10-01T07:05:00;17.90;80.60
64062;DHT22;50308;47.438;-1.528;2022-10-01T07:07:36;17.80;82.80
64062;DHT22;50308;47.438;-1.528;2022-10-01T07:10:07;17.80;81.70
64062;DHT22;50308;47.438;-1.528;2022-10-01T07:12:35;17.90;79.70
64062;DHT22;50308;47.438;-1.528;2022-10-01T07:15:01;17.90;79.30
64062;DHT22;50308;47.438;-1.528;2022-10-01T07:17:27;17.90;80.60
64062;DHT22;50308;47.438;-1.528;2022-10-01T07:19:53;17.90;81.00
64062;DHT22;50308;47.438;-1.528;2022-10-01T07:22:19;17.90;82.00
64062;DHT22;50308;47.438;-1.528;2022-10-01T07:24:45;17.90;83.30
64062;DHT22;50308;47.438;-1.528;2022-10-01T07:27:12;17.90;83.10
64062;DHT22;50308;47.438;-1.528;2022-10-01T07:29:38;17.90;80.00
64062;DHT22;50308;47.438;-1.528;2022-10-01T07:32:04;17.90;82.50
64062;DHT22;50308;47.438;-1.528;2022-10-01T07:34:34;17.90;81.20
64062;DHT22;50308;47.438;-1.528;2022-10-01T07:37:01;17.90;80.70
64062;DHT22;50308;47.438;-1.528;2022-10-01T07:39:27;17.90;81.20
64062;DHT22;50308;47.438;-1.528;2022-10-01T07:41:52;17.90;80.90
64062;DHT22;50308;47.438;-1.528;2022-10-01T07:44:18;17.90;84.10
64062;DHT22;50308;47.438;-1.528;2022-10-01T07:46:44;17.90;81.40
64062;DHT22;50308;47.438;-1.528;2022-10-01T07:49:11;17.90;81.10
64062;DHT22;50308;47.438;-1.528;2022-10-01T07:51:37;17.90;80.30
64062;DHT22;50308;47.438;-1.528;2022-10-01T07:54:04;18.00;83.20
64062;DHT22;50308;47.438;-1.528;2022-10-01T07:56:30;17.90;82.30
64062;DHT22;50308;47.438;-1.528;2022-10-01T07:58:56;18.00;82.80
64062;DHT22;50308;47.438;-1.528;2022-10-01T08:01:23;18.00;82.40
64062;DHT22;50308;47.438;-1.528;2022-10-01T08:03:50;17.90;81.80
64062;DHT22;50308;47.438;-1.528;2022-10-01T08:06:16;17.90;80.70
64062;DHT22;50308;47.438;-1.528;2022-10-01T08:08:43;18.00;84.20
64062;DHT22;50308;47.438;-1.528;2022-10-01T08:11:09;18.00;81.20
64062;DHT22;50308;47.438;-1.528;2022-10-01T08:13:37;18.00;81.60
64062;DHT22;50308;47.438;-1.528;2022-10-01T08:16:03;18.00;81.40
64062;DHT22;50308;47.438;-1.528;2022-10-01T08:18:30;18.00;83.80
64062;DHT22;50308;47.438;-1.528;2022-10-01T08:20:58;18.00;81.60
64062;DHT22;50308;47.438;-1.528;2022-10-01T08:23:27;18.00;82.20
64062;DHT22;50308;47.438;-1.528;2022-10-01T08:25:59;18.00;82.40
64062;DHT22;50308;47.438;-1.528;2022-10-01T08:28:25;18.00;83.60
64062;DHT22;50308;47.438;-1.528;2022-10-01T08:30:50;18.00;81.80
64062;DHT22;50308;47.438;-1.528;2022-10-01T08:33:16;18.00;84.20
64062;DHT22;50308;47.438;-1.528;2022-10-01T08:35:42;18.00;83.40
64062;DHT22;50308;47.438;-1.528;2022-10-01T08:38:09;18.00;84.00
64062;DHT22;50308;47.438;-1.528;2022-10-01T08:40:44;18.00;83.30
64062;DHT22;50308;47.438;-1.528;2022-10-01T08:45:45;18.00;82.20
64062;DHT22;50308;47.438;-1.528;2022-10-01T08:51:04;18.00;82.30
64062;DHT22;50308;47.438;-1.528;2022-10-01T08:54:16;18.00;80.90
64062;DHT22;50308;47.438;-1.528;2022-10-01T08:56:40;18.00;84.10
64062;DHT22;50308;47.438;-1.528;2022-10-01T09:02:16;18.00;80.80
64062;DHT22;50308;47.438;-1.528;2022-10-01T09:04:43;18.00;84.20
64062;DHT22;50308;47.438;-1.528;2022-10-01T09:13:02;18.10;83.50
64062;DHT22;50308;47.438;-1.528;2022-10-01T09:15:41;18.00;81.60
64062;DHT22;50308;47.438;-1.528;2022-10-01T09:18:45;18.10;84.60
64062;DHT22;50308;47.438;-1.528;2022-10-01T09:24:13;18.10;83.10
64062;DHT22;50308;47.438;-1.528;2022-10-01T09:26:46;18.10;84.60
64062;DHT22;50308;47.438;-1.528;2022-10-01T09:29:23;18.10;82.60
64062;DHT22;50308;47.438;-1.528;2022-10-01T09:31:51;18.10;83.20
64062;DHT22;50308;47.438;-1.528;2022-10-01T09:34:27;18.10;84.20
64062;DHT22;50308;47.438;-1.528;2022-10-01T09:40:09;18.10;83.40
64062;DHT22;50308;47.438;-1.528;2022-10-01T09:42:37;18.20;83.30
64062;DHT22;50308;47.438;-1.528;2022-10-01T09:45:03;18.20;85.40
64062;DHT22;50308;47.438;-1.528;2022-10-01T09:47:32;18.20;83.50
64062;DHT22;50308;47.438;-1.528;2022-10-01T09:49:59;18.20;85.40
64062;DHT22;50308;47.438;-1.528;2022-10-01T09:52:33;18.20;83.30
64062;DHT22;50308;47.438;-1.528;2022-10-01T09:57:41;18.20;82.50
64062;DHT22;50308;47.438;-1.528;2022-10-01T10:00:10;18.20;83.60
64062;DHT22;50308;47.438;-1.528;2022-10-01T10:02:44;18.20;84.20
64062;DHT22;50308;47.438;-1.528;2022-10-01T10:05:26;18.20;83.70
64062;DHT22;50308;47.438;-1.528;2022-10-01T10:10:26;18.20;83.70
64062;DHT22;50308;47.438;-1.528;2022-10-01T10:12:59;18.20;83.90
64062;DHT22;50308;47.438;-1.528;2022-10-01T10:15:25;18.20;84.30
64062;DHT22;50308;47.438;-1.528;2022-10-01T10:17:52;18.20;82.20
64062;DHT22;50308;47.438;-1.528;2022-10-01T10:20:37;18.20;84.30
64062;DHT22;50308;47.438;-1.528;2022-10-01T10:23:19;18.20;81.90
64062;DHT22;50308;47.438;-1.528;2022-10-01T10:26:00;18.20;84.50
64062;DHT22;50308;47.438;-1.528;2022-10-01T10:31:13;18.20;85.30
64062;DHT22;50308;47.438;-1.528;2022-10-01T10:33:54;18.20;84.80
64062;DHT22;50308;47.438;-1.528;2022-10-01T10:36:29;18.20;84.90
64062;DHT22;50308;47.438;-1.528;2022-10-01T10:38:57;18.20;83.20
64062;DHT22;50308;47.438;-1.528;2022-10-01T10:41:25;18.30;85.20
64062;DHT22;50308;47.438;-1.528;2022-10-01T10:44:12;18.30;85.50
64062;DHT22;50308;47.438;-1.528;2022-10-01T10:46:38;18.30;85.00
64062;DHT22;50308;47.438;-1.528;2022-10-01T10:51:47;18.30;83.70
64062;DHT22;50308;47.438;-1.528;2022-10-01T10:54:31;18.40;85.50
64062;DHT22;50308;47.438;-1.528;2022-10-01T10:57:03;18.40;84.70
64062;DHT22;50308;47.438;-1.528;2022-10-01T10:59:36;18.40;83.30
64062;DHT22;50308;47.438;-1.528;2022-10-01T11:02:05;18.40;83.70
64062;DHT22;50308;47.438;-1.528;2022-10-01T11:04:44;18.40;85.60
64062;DHT22;50308;47.438;-1.528;2022-10-01T11:07:11;18.40;85.20
64062;DHT22;50308;47.438;-1.528;2022-10-01T11:12:44;18.40;84.10
64062;DHT22;50308;47.438;-1.528;2022-10-01T11:18:26;18.30;84.00
64062;DHT22;50308;47.438;-1.528;2022-10-01T11:26:50;18.40;83.60
64062;DHT22;50308;47.438;-1.528;2022-10-01T11:29:02;18.50;85.40
64062;DHT22;50308;47.438;-1.528;2022-10-01T11:34:44;18.50;84.40
64062;DHT22;50308;47.438;-1.528;2022-10-01T11:40:07;18.50;83.50
64062;DHT22;50308;47.438;-1.528;2022-10-01T11:42:38;18.50;83.90
64062;DHT22;50308;47.438;-1.528;2022-10-01T11:45:18;18.50;85.40
64062;DHT22;50308;47.438;-1.528;2022-10-01T11:47:52;18.50;84.30
64062;DHT22;50308;47.438;-1.528;2022-10-01T11:50:24;18.50;84.10
64062;DHT22;50308;47.438;-1.528;2022-10-01T11:56:00;18.60;84.00
64062;DHT22;50308;47.438;-1.528;2022-10-01T12:06:36;18.70;84.30
64062;DHT22;50308;47.438;-1.528;2022-10-01T12:09:13;18.70;85.20
64062;DHT22;50308;47.438;-1.528;2022-10-01T12:11:54;18.80;85.00
64062;DHT22;50308;47.438;-1.528;2022-10-01T12:14:31;18.80;83.20
64062;DHT22;50308;47.438;-1.528;2022-10-01T12:17:10;18.70;83.10
64062;DHT22;50308;47.438;-1.528;2022-10-01T12:19:43;18.60;84.20
64062;DHT22;50308;47.438;-1.528;2022-10-01T12:22:17;18.60;84.90
64062;DHT22;50308;47.438;-1.528;2022-10-01T12:24:46;18.70;83.70
64062;DHT22;50308;47.438;-1.528;2022-10-01T12:28:11;18.60;84.50
64062;DHT22;50308;47.438;-1.528;2022-10-01T12:31:05;18.60;84.30
64062;DHT22;50308;47.438;-1.528;2022-10-01T12:39:22;18.70;84.60
64062;DHT22;50308;47.438;-1.528;2022-10-01T12:45:40;18.90;83.00
64062;DHT22;50308;47.438;-1.528;2022-10-01T12:55:59;18.80;82.80
64062;DHT22;50308;47.438;-1.528;2022-10-01T13:14:57;18.80;82.70
64062;DHT22;50308;47.438;-1.528;2022-10-01T13:17:38;18.80;83.40
64062;DHT22;50308;47.438;-1.528;2022-10-01T13:25:31;18.80;82.20
64062;DHT22;50308;47.438;-1.528;2022-10-01T13:28:46;18.80;84.40
64062;DHT22;50308;47.438;-1.528;2022-10-01T13:30:59;18.90;83.00
64062;DHT22;50308;47.438;-1.528;2022-10-01T13:33:30;18.90;83.40
64062;DHT22;50308;47.438;-1.528;2022-10-01T13:36:02;18.80;82.80
64062;DHT22;50308;47.438;-1.528;2022-10-01T13:38:43;18.80;82.40
64062;DHT22;50308;47.438;-1.528;2022-10-01T13:41:22;18.80;83.90
64062;DHT22;50308;47.438;-1.528;2022-10-01T13:43:56;18.80;82.90
64062;DHT22;50308;47.438;-1.528;2022-10-01T13:46:26;18.80;82.80
64062;DHT22;50308;47.438;-1.528;2022-10-01T13:48:54;18.80;83.40
64062;DHT22;50308;47.438;-1.528;2022-10-01T13:51:19;18.70;82.90
64062;DHT22;50308;47.438;-1.528;2022-10-01T13:53:59;18.80;83.40
64062;DHT22;50308;47.438;-1.528;2022-10-01T13:56:36;18.70;81.40
64062;DHT22;50308;47.438;-1.528;2022-10-01T13:59:04;18.80;83.40
64062;DHT22;50308;47.438;-1.528;2022-10-01T14:01:45;18.80;82.50
64062;DHT22;50308;47.438;-1.528;2022-10-01T14:07:17;18.80;82.40
64062;DHT22;50308;47.438;-1.528;2022-10-01T14:09:46;18.80;82.40
64062;DHT22;50308;47.438;-1.528;2022-10-01T14:12:17;18.80;82.30
64062;DHT22;50308;47.438;-1.528;2022-10-01T14:18:02;18.90;83.20
64062;DHT22;50308;47.438;-1.528;2022-10-01T14:20:34;18.90;82.90
64062;DHT22;50308;47.438;-1.528;2022-10-01T14:23:13;18.80;83.50
64062;DHT22;50308;47.438;-1.528;2022-10-01T14:31:27;18.80;83.20
64062;DHT22;50308;47.438;-1.528;2022-10-01T14:36:53;18.80;82.60
64062;DHT22;50308;47.438;-1.528;2022-10-01T14:39:22;18.80;83.70
64062;DHT22;50308;47.438;-1.528;2022-10-01T14:41:50;18.80;82.70
64062;DHT22;50308;47.438;-1.528;2022-10-01T14:44:20;18.80;83.10
64062;DHT22;50308;47.438;-1.528;2022-10-01T14:46:48;18.80;83.30
64062;DHT22;50308;47.438;-1.528;2022-10-01T14:49:20;18.80;83.30
64062;DHT22;50308;47.438;-1.528;2022-10-01T14:52:27;18.80;82.60
64062;DHT22;50308;47.438;-1.528;2022-10-01T14:55:02;18.80;82.10
64062;DHT22;50308;47.438;-1.528;2022-10-01T14:57:37;18.80;84.10
64062;DHT22;50308;47.438;-1.528;2022-10-01T15:00:07;18.80;83.80
64062;DHT22;50308;47.438;-1.528;2022-10-01T15:02:49;18.80;82.70
64062;DHT22;50308;47.438;-1.528;2022-10-01T15:05:31;18.80;82.80
64062;DHT22;50308;47.438;-1.528;2022-10-01T15:08:11;18.80;84.70
64062;DHT22;50308;47.438;-1.528;2022-10-01T15:11:02;18.80;82.10
64062;DHT22;50308;47.438;-1.528;2022-10-01T15:13:28;18.80;82.80
64062;DHT22;50308;47.438;-1.528;2022-10-01T15:15:57;18.80;82.70
64062;DHT22;50308;47.438;-1.528;2022-10-01T15:18:23;18.80;83.20
64062;DHT22;50308;47.438;-1.528;2022-10-01T15:21:04;18.80;81.60
64062;DHT22;50308;47.438;-1.528;2022-10-01T15:23:33;18.80;82.90
64062;DHT22;50308;47.438;-1.528;2022-10-01T15:26:04;18.80;82.80
64062;DHT22;50308;47.438;-1.528;2022-10-01T15:28:32;18.80;81.50
64062;DHT22;50308;47.438;-1.528;2022-10-01T15:31:03;18.80;82.10
64062;DHT22;50308;47.438;-1.528;2022-10-01T15:33:32;18.80;82.10
64062;DHT22;50308;47.438;-1.528;2022-10-01T15:36:01;18.80;82.30
64062;DHT22;50308;47.438;-1.528;2022-10-01T15:38:28;18.80;81.80
64062;DHT22;50308;47.438;-1.528;2022-10-01T15:40:56;18.80;81.80
64062;DHT22;50308;47.438;-1.528;2022-10-01T15:43:36;18.80;82.20
64062;DHT22;50308;47.438;-1.528;2022-10-01T15:48:30;18.80;81.50
64062;DHT22;50308;47.438;-1.528;2022-10-01T15:51:04;18.80;81.90
64062;DHT22;50308;47.438;-1.528;2022-10-01T15:53:31;18.80;81.60
64062;DHT22;50308;47.438;-1.528;2022-10-01T15:55:59;18.80;81.50
64062;DHT22;50308;47.438;-1.528;2022-10-01T15:58:36;18.80;81.80
64062;DHT22;50308;47.438;-1.528;2022-10-01T16:01:09;18.90;81.40
64062;DHT22;50308;47.438;-1.528;2022-10-01T16:03:50;18.90;81.30
64062;DHT22;50308;47.438;-1.528;2022-10-01T16:06:28;18.80;81.10
64062;DHT22;50308;47.438;-1.528;2022-10-01T16:11:48;18.80;80.40
64062;DHT22;50308;47.438;-1.528;2022-10-01T16:14:29;18.80;80.40
64062;DHT22;50308;47.438;-1.528;2022-10-01T16:19:50;18.80;80.50
64062;DHT22;50308;47.438;-1.528;2022-10-01T16:22:21;18.80;80.40
64062;DHT22;50308;47.438;-1.528;2022-10-01T16:24:48;18.80;80.50
64062;DHT22;50308;47.438;-1.528;2022-10-01T16:27:30;18.80;80.60
64062;DHT22;50308;47.438;-1.528;2022-10-01T16:30:31;18.80;80.40
64062;DHT22;50308;47.438;-1.528;2022-10-01T16:33:00;18.90;81.60
64062;DHT22;50308;47.438;-1.528;2022-10-01T16:35:31;18.90;80.80
64062;DHT22;50308;47.438;-1.528;2022-10-01T16:38:00;18.90;80.50
64062;DHT22;50308;47.438;-1.528;2022-10-01T16:40:28;18.90;81.00
64062;DHT22;50308;47.438;-1.528;2022-10-01T16:42:55;18.80;80.90
64062;DHT22;50308;47.438;-1.528;2022-10-01T16:45:23;18.90;80.70
64062;DHT22;50308;47.438;-1.528;2022-10-01T16:47:51;18.90;81.40
64062;DHT22;50308;47.438;-1.528;2022-10-01T16:50:18;18.90;80.90
64062;DHT22;50308;47.438;-1.528;2022-10-01T16:52:46;18.90;81.20
64062;DHT22;50308;47.438;-1.528;2022-10-01T16:55:26;18.80;80.40
64062;DHT22;50308;47.438;-1.528;2022-10-01T16:57:54;18.90;81.40
64062;DHT22;50308;47.438;-1.528;2022-10-01T17:00:22;18.90;80.70
64062;DHT22;50308;47.438;-1.528;2022-10-01T17:02:48;18.90;80.40
64062;DHT22;50308;47.438;-1.528;2022-10-01T17:05:20;18.80;80.40
64062;DHT22;50308;47.438;-1.528;2022-10-01T17:07:50;18.80;81.00
64062;DHT22;50308;47.438;-1.528;2022-10-01T17:10:17;18.80;81.20
64062;DHT22;50308;47.438;-1.528;2022-10-01T17:12:44;18.80;80.40
64062;DHT22;50308;47.438;-1.528;2022-10-01T17:15:23;18.90;81.20
64062;DHT22;50308;47.438;-1.528;2022-10-01T17:17:54;18.80;80.90
64062;DHT22;50308;47.438;-1.528;2022-10-01T17:20:21;18.80;81.00
64062;DHT22;50308;47.438;-1.528;2022-10-01T17:22:48;18.80;80.90
64062;DHT22;50308;47.438;-1.528;2022-10-01T17:25:16;18.90;81.60
64062;DHT22;50308;47.438;-1.528;2022-10-01T17:27:42;18.80;80.50
64062;DHT22;50308;47.438;-1.528;2022-10-01T17:30:08;18.90;80.50
64062;DHT22;50308;47.438;-1.528;2022-10-01T17:32:34;18.90;81.20
64062;DHT22;50308;47.438;-1.528;2022-10-01T17:35:02;18.80;80.40
64062;DHT22;50308;47.438;-1.528;2022-10-01T17:37:27;18.80;81.10
64062;DHT22;50308;47.438;-1.528;2022-10-01T17:39:53;18.80;81.30
64062;DHT22;50308;47.438;-1.528;2022-10-01T17:42:19;18.80;82.10
64062;DHT22;50308;47.438;-1.528;2022-10-01T17:44:44;18.80;81.10
64062;DHT22;50308;47.438;-1.528;2022-10-01T17:47:11;18.80;81.50
64062;DHT22;50308;47.438;-1.528;2022-10-01T17:49:36;18.80;81.70
64062;DHT22;50308;47.438;-1.528;2022-10-01T17:52:02;18.80;80.40
64062;DHT22;50308;47.438;-1.528;2022-10-01T17:54:30;18.80;80.80
64062;DHT22;50308;47.438;-1.528;2022-10-01T17:56:55;18.80;81.30
64062;DHT22;50308;47.438;-1.528;2022-10-01T17:59:21;18.80;80.40
64062;DHT22;50308;47.438;-1.528;2022-10-01T18:01:47;18.80;81.50
64062;DHT22;50308;47.438;-1.528;2022-10-01T18:04:13;18.80;80.70
64062;DHT22;50308;47.438;-1.528;2022-10-01T18:06:39;18.80;80.40
64062;DHT22;50308;47.438;-1.528;2022-10-01T18:09:05;18.80;80.40
64062;DHT22;50308;47.438;-1.528;2022-10-01T18:11:32;18.80;82.00